Rostein — LLHI — position and weather

sailwx.info

Track history (hours):
 
Tides and Currents Weather Stations Pressure Air Temp Water Temp Dewpoint Dewpoint Depression Visibility Wind Speed Wind Dir Waves Ship Positions

Rostein

Last reported at 2017-Jun-25 13:30 UTC. Time now 2017-Jun-25 14:07 UTC.
Position N 70°57' E 025°30'.

Length 57 m; draft 4 m.

Type: Other ship. MMSI: 257210000.

Date/timePositionNaut miles runAvg speedWind from/ knotsBaromVisibWave heightAir tempDewpointWater temp
2017-Jun-25 13:30N 70°57' E 025°30'3 6.2
2017-Jun-25 13:00N 70°54' E 025°32'0 0.7
2017-Jun-25 12:30N 70°54' E 025°33'0 0.0
2017-Jun-25 12:00N 70°54' E 025°33'0 0.6
2017-Jun-25 11:29N 70°54' E 025°33'5 9.9
2017-Jun-25 11:00N 70°56' E 025°47'611.6
2017-Jun-25 10:30N 70°57' E 026°04'611.8
2017-Jun-25 10:00N 70°59' E 026°21'611.5
2017-Jun-25 09:30N 71°02' E 026°37'611.8
2017-Jun-25 09:00N 71°04' E 026°54'611.8
2017-Jun-25 08:30N 71°06' E 027°11'612.4
2017-Jun-25 08:00N 71°08' E 027°29'612.9
2017-Jun-25 07:30N 71°08' E 027°48'612.2
2017-Jun-25 07:00N 71°07' E 028°07'612.3
2017-Jun-25 06:30N 71°05' E 028°24'611.8
2017-Jun-25 06:00N 71°02' E 028°40'611.7
2017-Jun-25 05:30N 70°59' E 028°55'611.3
2017-Jun-25 05:00N 70°56' E 029°10'511.0
2017-Jun-25 04:30N 70°53' E 029°25'511.1
2017-Jun-25 04:00N 70°50' E 029°39'611.1
2017-Jun-25 03:30N 70°47' E 029°54'510.8
2017-Jun-25 03:00N 70°44' E 030°07'510.2
2017-Jun-25 02:30N 70°41' E 030°19'510.5
2017-Jun-25 02:01N 70°37' E 030°30'611.0
2017-Jun-25 01:30N 70°34' E 030°42'510.8
2017-Jun-25 01:00N 70°30' E 030°53'510.7
2017-Jun-25 00:31N 70°25' E 031°02'3 6.7
2017-Jun-25 00:00N 70°22' E 031°02'0 0.0
2017-Jun-24 23:30N 70°22' E 031°02'0 0.0
2017-Jun-24 23:00N 70°22' E 031°02'2 4.6
2017-Jun-24 22:30N 70°24' E 031°03'5 9.2
2017-Jun-24 22:00N 70°28' E 030°56'5 9.1
2017-Jun-24 21:30N 70°32' E 030°47'4 9.0
2017-Jun-24 21:00N 70°35' E 030°38'4 8.8
2017-Jun-24 20:31N 70°38' E 030°29'4 8.6
2017-Jun-24 20:00N 70°41' E 030°19'4 8.3
2017-Jun-24 19:30N 70°44' E 030°10'4 8.8
2017-Jun-24 19:00N 70°46' E 029°59'5 9.2
2017-Jun-24 18:30N 70°49' E 029°47'5 9.2
2017-Jun-24 18:00N 70°51' E 029°35'5 9.4
2017-Jun-24 17:30N 70°54' E 029°23'5 9.5
2017-Jun-24 17:00N 70°56' E 029°11'5 9.6
2017-Jun-24 16:30N 70°59' E 028°59'5 9.8
2017-Jun-24 16:00N 71°01' E 028°45'510.2
2017-Jun-24 15:30N 71°04' E 028°32'510.4
2017-Jun-24 15:00N 71°07' E 028°18'1010.3
2017-Jun-24 14:00N 71°08' E 027°47'510.8
2017-Jun-24 13:30N 71°09' E 027°30'510.5
2017-Jun-24 13:00N 71°07' E 027°15'510.2
2017-Jun-24 12:31N 71°05' E 027°00'510.2
2017-Jun-24 12:00N 71°03' E 026°46'510.1
2017-Jun-24 11:30N 71°01' E 026°31'5 9.9
2017-Jun-24 11:00N 70°59' E 026°17'5 9.5
2017-Jun-24 10:30N 70°57' E 026°04'5 9.9
2017-Jun-24 10:00N 70°56' E 025°50'510.1
2017-Jun-24 09:31N 70°55' E 025°34'5 9.9
2017-Jun-24 09:00N 70°59' E 025°22'510.2
2017-Jun-24 08:30N 70°59' E 025°07'5 9.2
2017-Jun-24 08:00N 70°60' E 024°53'5 9.3
2017-Jun-24 07:30N 71°01' E 024°39'4 8.1
2017-Jun-24 07:00N 71°00' E 024°28'5 9.4
2017-Jun-24 06:30N 70°57' E 024°17'4 9.0
2017-Jun-24 06:00N 70°54' E 024°07'5 9.7
2017-Jun-24 05:30N 70°51' E 023°56'5 9.7
2017-Jun-24 05:00N 70°47' E 023°45'510.2
2017-Jun-24 04:30N 70°44' E 023°35'510.3
2017-Jun-24 04:00N 70°40' E 023°24'510.4
2017-Jun-24 03:30N 70°36' E 023°12'510.6
2017-Jun-24 03:00N 70°33' E 023°01'510.1
2017-Jun-24 02:30N 70°30' E 022°48'510.7
2017-Jun-24 02:00N 70°28' E 022°33'510.0
2017-Jun-24 01:30N 70°27' E 022°18'5 9.6
2017-Jun-24 01:00N 70°26' E 022°04'510.1
2017-Jun-24 00:30N 70°25' E 021°50'510.1
2017-Jun-24 00:00N 70°22' E 021°37'510.4
2017-Jun-23 23:30N 70°18' E 021°26'510.5
2017-Jun-23 23:00N 70°15' E 021°14'510.2
2017-Jun-23 22:30N 70°11' E 021°05'510.2
2017-Jun-23 22:00N 70°06' E 020°58'5 9.9
2017-Jun-23 21:30N 70°03' E 020°48'510.2
2017-Jun-23 21:00N 70°01' E 020°34'510.2
2017-Jun-23 20:29N 69°60' E 020°19'510.1
2017-Jun-23 20:00N 69°58' E 020°06'5 9.8
2017-Jun-23 19:30N 69°55' E 019°54'5 9.7
2017-Jun-23 19:00N 69°51' E 019°45'5 9.7
2017-Jun-23 18:30N 69°49' E 019°33'510.0
2017-Jun-23 18:00N 69°47' E 019°19'5 9.9
2017-Jun-23 17:30N 69°45' E 019°07'510.0
2017-Jun-23 17:00N 69°40' E 019°01'510.5
2017-Jun-23 16:30N 69°36' E 018°53'4 8.3
2017-Jun-23 16:00N 69°33' E 018°43'4 8.9
2017-Jun-23 15:30N 69°32' E 018°31'5 9.7
2017-Jun-23 15:00N 69°31' E 018°18'9 9.2
2017-Jun-23 14:00N 69°35' E 017°55'4 8.9
2017-Jun-23 13:30N 69°38' E 017°45'4 8.7
2017-Jun-23 13:00N 69°39' E 017°33'5 9.4
2017-Jun-23 12:30N 69°36' E 017°22'5 9.4
2017-Jun-23 12:00N 69°33' E 017°11'5 9.2
2017-Jun-23 11:30N 69°31' E 016°60'5 9.2
2017-Jun-23 11:00N 69°27' E 016°54'5 9.5
2017-Jun-23 10:30N 69°22' E 016°51'510.3
2017-Jun-23 10:00N 69°17' E 016°52'510.0
2017-Jun-23 09:30N 69°12' E 016°48'510.4
2017-Jun-23 09:00N 69°07' E 016°45'510.5
2017-Jun-23 08:30N 69°02' E 016°45'510.5
2017-Jun-23 08:00N 68°57' E 016°49'5 9.9
2017-Jun-23 07:30N 68°52' E 016°48'5 9.9
2017-Jun-23 07:00N 68°47' E 016°45'510.0
2017-Jun-23 06:31N 68°42' E 016°42'5 9.8
2017-Jun-23 06:00N 68°38' E 016°35'4 9.0
2017-Jun-23 05:31N 68°34' E 016°31'4 8.1
2017-Jun-23 05:00N 68°33' E 016°20'4 8.9
2017-Jun-23 04:30N 68°31' E 016°10'5 9.9
2017-Jun-23 04:00N 68°26' E 016°04'510.4
2017-Jun-23 03:30N 68°22' E 015°58'5 9.8
2017-Jun-23 03:00N 68°18' E 015°49'5 9.5
2017-Jun-23 02:30N 68°15' E 015°40'5 9.4
2017-Jun-23 02:00N 68°12' E 015°29'5 9.4
2017-Jun-23 01:30N 68°09' E 015°19'5 9.7
2017-Jun-23 00:59N 68°06' E 015°08'5 9.8
2017-Jun-23 00:30N 68°04' E 014°58'510.1
2017-Jun-23 00:00N 68°00' E 014°48'510.1
2017-Jun-22 23:30N 67°57' E 014°37'510.1
2017-Jun-22 23:00N 67°54' E 014°28'510.1
2017-Jun-22 22:30N 67°50' E 014°19'510.1
2017-Jun-22 22:00N 67°46' E 014°11'5 9.9
2017-Jun-22 21:29N 67°42' E 014°03'5 9.7
2017-Jun-22 21:00N 67°38' E 013°56'510.0
2017-Jun-22 20:30N 67°34' E 013°49'510.2
2017-Jun-22 20:00N 67°29' E 013°41'510.4
2017-Jun-22 19:30N 67°25' E 013°34'510.6
2017-Jun-22 19:00N 67°21' E 013°26'510.6
2017-Jun-22 18:30N 67°17' E 013°18'510.4
2017-Jun-22 18:00N 67°12' E 013°09'510.1
2017-Jun-22 17:30N 67°08' E 013°01'510.2
2017-Jun-22 17:00N 67°04' E 012°53'510.2
2017-Jun-22 16:30N 67°01' E 012°44'5 9.9
2017-Jun-22 16:00N 66°57' E 012°36'19 9.9
2017-Jun-22 14:03N 66°42' E 012°06'5 9.8
2017-Jun-22 13:30N 66°38' E 011°57'5 9.9
2017-Jun-22 13:00N 66°34' E 011°50'5 9.9
2017-Jun-22 12:30N 66°30' E 011°43'59 9.8
2017-Jun-22 06:27N 65°34' E 010°54'4 9.9
2017-Jun-22 06:00N 65°30' E 010°51'510.0
2017-Jun-22 05:30N 65°25' E 010°48'5 9.8
2017-Jun-22 05:00N 65°20' E 010°44'5 9.9
2017-Jun-22 04:30N 65°15' E 010°40'5 9.7
2017-Jun-22 04:00N 65°11' E 010°37'5 9.7
2017-Jun-22 03:30N 65°06' E 010°33'5 9.7
2017-Jun-22 03:00N 65°02' E 010°30'5 9.7
2017-Jun-22 02:30N 64°57' E 010°26'5 9.7
2017-Jun-22 02:01N 64°52' E 010°23'710.0
2017-Jun-22 01:21N 64°46' E 010°21'3 9.9
2017-Jun-22 01:00N 64°43' E 010°25'510.1
2017-Jun-22 00:31N 64°40' E 010°34'5 9.7
2017-Jun-22 00:00N 64°38' E 010°45'5 9.7
2017-Jun-21 23:30N 64°37' E 010°56'510.6
2017-Jun-21 23:00N 64°34' E 011°06'5 9.4
2017-Jun-21 22:30N 64°30' E 011°10'0 0.0
2017-Jun-21 22:00N 64°30' E 011°10'0 0.0
2017-Jun-21 21:30N 64°30' E 011°10'0 0.0
2017-Jun-21 21:00N 64°30' E 011°10'0 0.0
2017-Jun-21 20:30N 64°30' E 011°10'0 0.0
2017-Jun-21 20:00N 64°30' E 011°10'0 0.0
2017-Jun-21 19:30N 64°30' E 011°10'0 0.0
2017-Jun-21 19:00N 64°30' E 011°10'0 0.0
2017-Jun-21 18:30N 64°30' E 011°10'0 0.0
2017-Jun-21 18:00N 64°30' E 011°10'0 0.0
2017-Jun-21 17:30N 64°30' E 011°10'0 0.0
2017-Jun-21 16:59N 64°30' E 011°10'0 0.0
2017-Jun-21 16:30N 64°30' E 011°10'0 0.0
2017-Jun-21 16:00N 64°30' E 011°10'0 0.0
2017-Jun-21 15:30N 64°30' E 011°10'0 0.0
2017-Jun-21 15:00N 64°30' E 011°10'0 0.0
2017-Jun-21 14:30N 64°30' E 011°10'0 0.0
2017-Jun-21 11:38N 64°30' E 011°10'3 4.5
2017-Jun-21 11:00N 64°32' E 011°07'610.9
2017-Jun-21 10:26N 64°37' E 010°59'512.3
2017-Jun-21 10:00N 64°43' E 010°57'611.5
2017-Jun-21 09:30N 64°47' E 011°05'611.7
2017-Jun-21 09:01N 64°52' E 011°15'611.6
2017-Jun-21 08:30N 64°56' E 011°22'612.1
2017-Jun-21 08:00N 65°02' E 011°22'611.3
2017-Jun-21 07:30N 65°07' E 011°30'611.7
2017-Jun-21 07:00N 65°11' E 011°40'611.4
2017-Jun-21 06:26N 65°14' E 011°53'11 9.9
2017-Jun-21 05:22N 65°25' E 011°57'511.1
2017-Jun-21 04:56N 65°30' E 011°58'1111.6
2017-Jun-21 03:58N 65°39' E 012°13'1012.6
2017-Jun-21 03:11N 65°48' E 012°20'212.7
2017-Jun-21 03:00N 65°51' E 012°22'612.4
2017-Jun-21 02:29N 65°57' E 012°25'612.2
2017-Jun-21 02:00N 66°02' E 012°34'611.6
2017-Jun-21 01:29N 66°07' E 012°40'611.8
2017-Jun-21 01:00N 66°13' E 012°38'611.6
2017-Jun-21 00:30N 66°15' E 012°25'510.8
2017-Jun-21 00:00N 66°20' E 012°24'612.2
2017-Jun-20 23:30N 66°26' E 012°32'612.0
2017-Jun-20 23:00N 66°30' E 012°41'611.9
2017-Jun-20 22:30N 66°36' E 012°42'611.6
2017-Jun-20 22:00N 66°42' E 012°43'612.1
2017-Jun-20 21:29N 66°48' E 012°49'611.5
2017-Jun-20 21:00N 66°52' E 012°59'911.7
2017-Jun-20 20:16N 66°57' E 013°17'3911.4
2017-Jun-20 16:48N 67°34' E 013°53'411.7
2017-Jun-20 16:27N 67°37' E 013°59'511.8
2017-Jun-20 16:00N 67°42' E 014°07'711.8
2017-Jun-20 15:24N 67°47' E 014°18'2311.8
2017-Jun-20 13:27N 68°03' E 015°03'1012.0
2017-Jun-20 12:38N 68°09' E 015°22'13810.8
2017-Jun-19 23:55N 69°51' E 019°42'30 2.7
2017-Jun-19 12:50N 70°02' E 021°03'0 0.2
2017-Jun-19 12:30N 70°02' E 021°03'0 0.0
2017-Jun-19 12:00N 70°02' E 021°03'0 0.1
2017-Jun-19 11:30N 70°02' E 021°04'0 0.2
2017-Jun-19 11:00N 70°02' E 021°04'0 0.1
2017-Jun-19 10:30N 70°02' E 021°04'0 0.2
2017-Jun-19 10:00N 70°02' E 021°03'0 0.2
2017-Jun-19 09:30N 70°02' E 021°03'0 0.2
2017-Jun-19 09:00N 70°02' E 021°03'0 0.5
2017-Jun-19 08:30N 70°02' E 021°03'0 0.3
2017-Jun-19 08:00N 70°02' E 021°03'0 0.1
2017-Jun-19 07:30N 70°02' E 021°03'0 0.1
2017-Jun-19 07:00N 70°02' E 021°03'0 0.2
2017-Jun-19 06:30N 70°02' E 021°03'1 1.1
2017-Jun-19 06:00N 70°02' E 021°01'0 0.1
2017-Jun-19 05:30N 70°02' E 021°01'0 0.1
2017-Jun-19 05:00N 70°02' E 021°01'0 0.1
2017-Jun-19 04:30N 70°02' E 021°01'0 0.1
2017-Jun-19 04:00N 70°02' E 021°01'0 0.1
2017-Jun-19 03:30N 70°02' E 021°01'0 0.2
2017-Jun-19 03:00N 70°02' E 021°01'0 0.1
2017-Jun-19 02:30N 70°02' E 021°01'0 0.3
2017-Jun-19 02:00N 70°02' E 021°01'0 0.1
2017-Jun-19 01:30N 70°02' E 021°01'1 1.8
2017-Jun-19 00:59N 70°03' E 021°02'3 6.2
2017-Jun-19 00:30N 70°03' E 020°53'4 7.4
2017-Jun-19 00:00N 70°02' E 020°43'4 7.2
2017-Jun-18 23:30N 70°01' E 020°32'4 7.4
2017-Jun-18 23:00N 69°60' E 020°22'4 7.8
2017-Jun-18 22:30N 69°58' E 020°12'510.0
2017-Jun-18 22:00N 69°55' E 020°01'510.2
2017-Jun-18 21:30N 69°52' E 019°48'510.2
2017-Jun-18 21:00N 69°50' E 019°36'510.2
2017-Jun-18 20:29N 69°48' E 019°21'510.3
2017-Jun-18 20:01N 69°47' E 019°07'4 8.5
2017-Jun-18 19:30N 69°50' E 018°58'510.1
2017-Jun-18 18:59N 69°53' E 018°47'4 7.3
2017-Jun-18 18:30N 69°52' E 018°38'4 8.2
2017-Jun-18 18:00N 69°49' E 018°30'5 9.7
2017-Jun-18 17:30N 69°47' E 018°17'4 9.0
2017-Jun-18 17:00N 69°43' E 018°11'1 2.0
2017-Jun-18 16:30N 69°42' E 018°10'0 0.0
2017-Jun-18 16:00N 69°42' E 018°10'0 0.0
2017-Jun-18 15:29N 69°42' E 018°10'0 0.1
2017-Jun-18 15:00N 69°42' E 018°10'0 0.0
2017-Jun-18 14:00N 69°42' E 018°10'1 1.9
2017-Jun-18 13:30N 69°42' E 018°08'611.3
2017-Jun-18 13:00N 69°40' E 017°52'611.5
2017-Jun-18 12:30N 69°39' E 017°36'611.4
2017-Jun-18 12:00N 69°36' E 017°22'611.4
2017-Jun-18 11:30N 69°33' E 017°08'611.3
2017-Jun-18 11:00N 69°29' E 016°57'611.4
2017-Jun-18 10:30N 69°23' E 016°52'5 9.6
2017-Jun-18 10:00N 69°20' E 017°01'2 3.7
2017-Jun-18 09:30N 69°20' E 017°06'0 0.0
2017-Jun-18 09:00N 69°20' E 017°06'0 0.0
2017-Jun-18 08:30N 69°20' E 017°06'0 0.0
2017-Jun-18 08:00N 69°20' E 017°06'0 0.0
2017-Jun-18 07:30N 69°20' E 017°06'0 0.0
2017-Jun-18 06:59N 69°20' E 017°07'0 0.8
2017-Jun-18 06:30N 69°20' E 017°06'0 0.0
2017-Jun-18 06:00N 69°20' E 017°06'2 3.3
2017-Jun-18 05:30N 69°20' E 017°01'4 8.3
2017-Jun-18 04:59N 69°22' E 016°51'4 9.0
2017-Jun-18 04:30N 69°27' E 016°54'5 9.0
2017-Jun-18 04:00N 69°31' E 017°00'4 9.1
2017-Jun-18 03:30N 69°33' E 017°12'5 9.2
2017-Jun-18 03:01N 69°35' E 017°23'4 7.6
2017-Jun-18 02:30N 69°35' E 017°34'5 9.2
2017-Jun-18 02:00N 69°31' E 017°41'0 0.2
2017-Jun-18 01:30N 69°31' E 017°42'0 0.0
2017-Jun-18 01:00N 69°31' E 017°42'0 0.0
2017-Jun-18 00:30N 69°31' E 017°42'1 1.6
2017-Jun-18 00:00N 69°32' E 017°40'4 8.5
2017-Jun-17 23:30N 69°35' E 017°34'4 8.3
2017-Jun-17 23:01N 69°35' E 017°22'510.3
2017-Jun-17 22:30N 69°32' E 017°09'510.4
2017-Jun-17 22:00N 69°29' E 016°57'510.9
2017-Jun-17 21:30N 69°24' E 016°52'5 9.3
2017-Jun-17 21:00N 69°20' E 016°60'2 4.2
2017-Jun-17 20:30N 69°20' E 017°06'0 0.0
2017-Jun-17 19:59N 69°20' E 017°06'3 7.1
2017-Jun-17 19:31N 69°21' E 016°56'4 8.3
2017-Jun-17 19:00N 69°25' E 016°53'510.1
2017-Jun-17 18:30N 69°30' E 016°58'510.1
2017-Jun-17 18:00N 69°32' E 017°10'510.4
2017-Jun-17 17:30N 69°35' E 017°22'4 8.1
2017-Jun-17 17:00N 69°35' E 017°34'5 9.5
2017-Jun-17 16:30N 69°31' E 017°42'0 0.1
2017-Jun-17 16:00N 69°31' E 017°42'0 0.0
2017-Jun-17 15:30N 69°31' E 017°42'0 0.2
2017-Jun-17 15:00N 69°31' E 017°42'8 8.3
2017-Jun-17 14:00N 69°35' E 017°21'511.0
2017-Jun-17 13:30N 69°32' E 017°07'510.7
2017-Jun-17 13:00N 69°28' E 016°56'510.8
2017-Jun-17 12:30N 69°23' E 016°51'5 9.8
2017-Jun-17 12:00N 69°20' E 017°02'1 2.3
2017-Jun-17 11:30N 69°20' E 017°06'0 0.2
2017-Jun-17 11:00N 69°20' E 017°06'5 9.5
2017-Jun-17 10:30N 69°22' E 016°53'5 9.1
2017-Jun-17 10:00N 69°26' E 016°54'5 9.8
2017-Jun-17 09:30N 69°30' E 016°60'510.1
2017-Jun-17 09:00N 69°33' E 017°12'510.1
2017-Jun-17 08:30N 69°35' E 017°25'4 8.0
2017-Jun-17 08:00N 69°34' E 017°36'4 7.3
2017-Jun-17 07:31N 69°31' E 017°42'0 0.0
2017-Jun-17 07:00N 69°31' E 017°42'0 0.0
2017-Jun-17 06:30N 69°31' E 017°42'3 5.3
2017-Jun-17 06:00N 69°33' E 017°38'3 6.6
2017-Jun-17 05:30N 69°36' E 017°44'510.5
2017-Jun-17 05:00N 69°34' E 017°58'611.7
2017-Jun-17 04:30N 69°30' E 018°12'611.3
2017-Jun-17 04:00N 69°32' E 018°28'510.7
2017-Jun-17 03:30N 69°33' E 018°42'5 9.7
2017-Jun-17 03:00N 69°36' E 018°53'4 7.5
2017-Jun-17 02:30N 69°39' E 018°58'0 0.0
2017-Jun-17 02:00N 69°39' E 018°58'0 0.0
2017-Jun-17 01:30N 69°39' E 018°58'0 0.0
2017-Jun-17 01:00N 69°39' E 018°58'1 1.8
2017-Jun-17 00:30N 69°40' E 019°00'511.2
2017-Jun-17 00:00N 69°45' E 019°07'611.5
2017-Jun-16 23:30N 69°48' E 019°22'611.7
2017-Jun-16 22:59N 69°50' E 019°38'611.2
2017-Jun-16 22:30N 69°53' E 019°52'611.1
2017-Jun-16 22:00N 69°57' E 020°04'510.9
2017-Jun-16 21:30N 69°60' E 020°18'510.9
2017-Jun-16 21:00N 70°01' E 020°33'511.2
2017-Jun-16 20:30N 70°03' E 020°48'611.0
2017-Jun-16 20:00N 70°04' E 021°04'611.0
2017-Jun-16 19:30N 70°03' E 021°20'510.8
2017-Jun-16 19:00N 69°60' E 021°32'10 5.7
2017-Jun-16 17:16N 69°52' E 021°50'411.5
2017-Jun-16 16:58N 69°54' E 021°42'510.4
2017-Jun-16 16:30N 69°58' E 021°35'611.5
2017-Jun-16 16:00N 70°02' E 021°22'611.4
2017-Jun-16 15:30N 70°02' E 021°06'2 4.3
2017-Jun-16 15:00N 70°02' E 020°59'0 0.0
2017-Jun-16 14:30N 70°02' E 020°59'0 0.3
2017-Jun-16 13:30N 70°02' E 021°00'0 0.0
2017-Jun-16 13:00N 70°02' E 021°00'2 3.8
2017-Jun-16 12:30N 70°04' E 021°00'4 7.7
2017-Jun-16 12:00N 70°03' E 020°49'3 6.8
2017-Jun-16 11:30N 70°00' E 020°42'1 1.7
2017-Jun-16 10:59N 69°60' E 020°43'0 0.0
2017-Jun-16 10:31N 69°60' E 020°43'3 5.6
2017-Jun-16 10:00N 70°02' E 020°46'510.6
2017-Jun-16 09:30N 70°03' E 021°01'1 2.5
2017-Jun-16 09:00N 70°02' E 020°59'0 0.0
2017-Jun-16 08:30N 70°02' E 020°59'2 4.4
2017-Jun-16 08:00N 70°03' E 020°54'5 9.8
2017-Jun-16 07:30N 70°01' E 020°42'1 2.8
2017-Jun-16 07:00N 69°60' E 020°43'0 0.0
2017-Jun-16 06:30N 69°60' E 020°43'0 0.0
2017-Jun-16 06:00N 69°60' E 020°43'2 4.5
2017-Jun-16 05:29N 70°02' E 020°43'510.9
2017-Jun-16 05:00N 70°04' E 020°58'2 3.5
2017-Jun-16 04:30N 70°02' E 020°59'0 0.0
2017-Jun-16 04:00N 70°02' E 020°59'1 1.3
2017-Jun-16 03:30N 70°02' E 021°01'3 6.8
2017-Jun-16 03:00N 70°03' E 020°52'510.5
2017-Jun-16 02:30N 70°01' E 020°38'5 9.8
2017-Jun-16 02:00N 69°60' E 020°24'510.3
2017-Jun-16 01:30N 69°58' E 020°10'510.2
2017-Jun-16 01:00N 69°55' E 019°59'5 9.9
2017-Jun-16 00:30N 69°52' E 019°47'510.1
2017-Jun-16 00:00N 69°50' E 019°34'510.5
2017-Jun-15 23:30N 69°48' E 019°20'510.3
2017-Jun-15 23:00N 69°45' E 019°07'5 9.9
2017-Jun-15 22:30N 69°40' E 019°01'510.4
2017-Jun-15 22:00N 69°36' E 018°53'5 9.2
2017-Jun-15 21:30N 69°33' E 018°42'510.0
2017-Jun-15 21:00N 69°32' E 018°29'5 9.7
2017-Jun-15 20:29N 69°30' E 018°16'4 9.1
2017-Jun-15 20:00N 69°26' E 018°07'510.3
2017-Jun-15 19:30N 69°21' E 018°05'510.0
2017-Jun-15 19:00N 69°17' E 017°58'510.1
2017-Jun-15 18:30N 69°12' E 018°01'5 9.7
2017-Jun-15 18:00N 69°09' E 017°50'611.6
2017-Jun-15 17:30N 69°07' E 017°35'510.5
2017-Jun-15 17:00N 69°04' E 017°22'1 2.8
2017-Jun-15 16:30N 69°03' E 017°22'0 0.0
2017-Jun-15 16:00N 69°03' E 017°22'0 0.0
2017-Jun-15 15:30N 69°03' E 017°22'0 0.0
2017-Jun-15 14:59N 69°03' E 017°22'3 2.9
2017-Jun-15 14:01N 69°01' E 017°17'611.8
2017-Jun-15 13:30N 68°59' E 017°01'  
Track history (hours):
 
Tides and Currents Weather Stations Pressure Air Temp Water Temp Dewpoint Dewpoint Depression Visibility Wind Speed Wind Dir Waves Ship Positions

Rostein

Last reported at 2017-Jun-25 13:30 UTC. Time now 2017-Jun-25 14:07 UTC.
Position N 70°57' E 025°30'.

Length 57 m; draft 4 m.

Type: Other ship. MMSI: 257210000.

Date/timePositionNaut miles runAvg speedWind from/ knotsBaromVisibWave heightAir tempDewpointWater temp
2017-Jun-25 13:30N 70°57' E 025°30'3 6.2
2017-Jun-25 13:00N 70°54' E 025°32'0 0.7
2017-Jun-25 12:30N 70°54' E 025°33'0 0.0
2017-Jun-25 12:00N 70°54' E 025°33'0 0.6
2017-Jun-25 11:29N 70°54' E 025°33'5 9.9
2017-Jun-25 11:00N 70°56' E 025°47'611.6
2017-Jun-25 10:30N 70°57' E 026°04'611.8
2017-Jun-25 10:00N 70°59' E 026°21'611.5
2017-Jun-25 09:30N 71°02' E 026°37'611.8
2017-Jun-25 09:00N 71°04' E 026°54'611.8
2017-Jun-25 08:30N 71°06' E 027°11'612.4
2017-Jun-25 08:00N 71°08' E 027°29'612.9
2017-Jun-25 07:30N 71°08' E 027°48'612.2
2017-Jun-25 07:00N 71°07' E 028°07'612.3
2017-Jun-25 06:30N 71°05' E 028°24'611.8
2017-Jun-25 06:00N 71°02' E 028°40'611.7
2017-Jun-25 05:30N 70°59' E 028°55'611.3
2017-Jun-25 05:00N 70°56' E 029°10'511.0
2017-Jun-25 04:30N 70°53' E 029°25'511.1
2017-Jun-25 04:00N 70°50' E 029°39'611.1
2017-Jun-25 03:30N 70°47' E 029°54'510.8
2017-Jun-25 03:00N 70°44' E 030°07'510.2
2017-Jun-25 02:30N 70°41' E 030°19'510.5
2017-Jun-25 02:01N 70°37' E 030°30'611.0
2017-Jun-25 01:30N 70°34' E 030°42'510.8
2017-Jun-25 01:00N 70°30' E 030°53'510.7
2017-Jun-25 00:31N 70°25' E 031°02'3 6.7
2017-Jun-25 00:00N 70°22' E 031°02'0 0.0
2017-Jun-24 23:30N 70°22' E 031°02'0 0.0
2017-Jun-24 23:00N 70°22' E 031°02'2 4.6
2017-Jun-24 22:30N 70°24' E 031°03'5 9.2
2017-Jun-24 22:00N 70°28' E 030°56'5 9.1
2017-Jun-24 21:30N 70°32' E 030°47'4 9.0
2017-Jun-24 21:00N 70°35' E 030°38'4 8.8
2017-Jun-24 20:31N 70°38' E 030°29'4 8.6
2017-Jun-24 20:00N 70°41' E 030°19'4 8.3
2017-Jun-24 19:30N 70°44' E 030°10'4 8.8
2017-Jun-24 19:00N 70°46' E 029°59'5 9.2
2017-Jun-24 18:30N 70°49' E 029°47'5 9.2
2017-Jun-24 18:00N 70°51' E 029°35'5 9.4
2017-Jun-24 17:30N 70°54' E 029°23'5 9.5
2017-Jun-24 17:00N 70°56' E 029°11'5 9.6
2017-Jun-24 16:30N 70°59' E 028°59'5 9.8
2017-Jun-24 16:00N 71°01' E 028°45'510.2
2017-Jun-24 15:30N 71°04' E 028°32'510.4
2017-Jun-24 15:00N 71°07' E 028°18'1010.3
2017-Jun-24 14:00N 71°08' E 027°47'510.8
2017-Jun-24 13:30N 71°09' E 027°30'510.5
2017-Jun-24 13:00N 71°07' E 027°15'510.2
2017-Jun-24 12:31N 71°05' E 027°00'510.2
2017-Jun-24 12:00N 71°03' E 026°46'510.1
2017-Jun-24 11:30N 71°01' E 026°31'5 9.9
2017-Jun-24 11:00N 70°59' E 026°17'5 9.5
2017-Jun-24 10:30N 70°57' E 026°04'5 9.9
2017-Jun-24 10:00N 70°56' E 025°50'510.1
2017-Jun-24 09:31N 70°55' E 025°34'5 9.9
2017-Jun-24 09:00N 70°59' E 025°22'510.2
2017-Jun-24 08:30N 70°59' E 025°07'5 9.2
2017-Jun-24 08:00N 70°60' E 024°53'5 9.3
2017-Jun-24 07:30N 71°01' E 024°39'4 8.1
2017-Jun-24 07:00N 71°00' E 024°28'5 9.4
2017-Jun-24 06:30N 70°57' E 024°17'4 9.0
2017-Jun-24 06:00N 70°54' E 024°07'5 9.7
2017-Jun-24 05:30N 70°51' E 023°56'5 9.7
2017-Jun-24 05:00N 70°47' E 023°45'510.2
2017-Jun-24 04:30N 70°44' E 023°35'510.3
2017-Jun-24 04:00N 70°40' E 023°24'510.4
2017-Jun-24 03:30N 70°36' E 023°12'510.6
2017-Jun-24 03:00N 70°33' E 023°01'510.1
2017-Jun-24 02:30N 70°30' E 022°48'510.7
2017-Jun-24 02:00N 70°28' E 022°33'510.0
2017-Jun-24 01:30N 70°27' E 022°18'5 9.6
2017-Jun-24 01:00N 70°26' E 022°04'510.1
2017-Jun-24 00:30N 70°25' E 021°50'510.1
2017-Jun-24 00:00N 70°22' E 021°37'510.4
2017-Jun-23 23:30N 70°18' E 021°26'510.5
2017-Jun-23 23:00N 70°15' E 021°14'510.2
2017-Jun-23 22:30N 70°11' E 021°05'510.2
2017-Jun-23 22:00N 70°06' E 020°58'5 9.9
2017-Jun-23 21:30N 70°03' E 020°48'510.2
2017-Jun-23 21:00N 70°01' E 020°34'510.2
2017-Jun-23 20:29N 69°60' E 020°19'510.1
2017-Jun-23 20:00N 69°58' E 020°06'5 9.8
2017-Jun-23 19:30N 69°55' E 019°54'5 9.7
2017-Jun-23 19:00N 69°51' E 019°45'5 9.7
2017-Jun-23 18:30N 69°49' E 019°33'510.0
2017-Jun-23 18:00N 69°47' E 019°19'5 9.9
2017-Jun-23 17:30N 69°45' E 019°07'510.0
2017-Jun-23 17:00N 69°40' E 019°01'510.5
2017-Jun-23 16:30N 69°36' E 018°53'4 8.3
2017-Jun-23 16:00N 69°33' E 018°43'4 8.9
2017-Jun-23 15:30N 69°32' E 018°31'5 9.7
2017-Jun-23 15:00N 69°31' E 018°18'9 9.2
2017-Jun-23 14:00N 69°35' E 017°55'4 8.9
2017-Jun-23 13:30N 69°38' E 017°45'4 8.7
2017-Jun-23 13:00N 69°39' E 017°33'5 9.4
2017-Jun-23 12:30N 69°36' E 017°22'5 9.4
2017-Jun-23 12:00N 69°33' E 017°11'5 9.2
2017-Jun-23 11:30N 69°31' E 016°60'5 9.2
2017-Jun-23 11:00N 69°27' E 016°54'5 9.5
2017-Jun-23 10:30N 69°22' E 016°51'510.3
2017-Jun-23 10:00N 69°17' E 016°52'510.0
2017-Jun-23 09:30N 69°12' E 016°48'510.4
2017-Jun-23 09:00N 69°07' E 016°45'510.5
2017-Jun-23 08:30N 69°02' E 016°45'510.5
2017-Jun-23 08:00N 68°57' E 016°49'5 9.9
2017-Jun-23 07:30N 68°52' E 016°48'5 9.9
2017-Jun-23 07:00N 68°47' E 016°45'510.0
2017-Jun-23 06:31N 68°42' E 016°42'5 9.8
2017-Jun-23 06:00N 68°38' E 016°35'4 9.0
2017-Jun-23 05:31N 68°34' E 016°31'4 8.1
2017-Jun-23 05:00N 68°33' E 016°20'4 8.9
2017-Jun-23 04:30N 68°31' E 016°10'5 9.9
2017-Jun-23 04:00N 68°26' E 016°04'510.4
2017-Jun-23 03:30N 68°22' E 015°58'5 9.8
2017-Jun-23 03:00N 68°18' E 015°49'5 9.5
2017-Jun-23 02:30N 68°15' E 015°40'5 9.4
2017-Jun-23 02:00N 68°12' E 015°29'5 9.4
2017-Jun-23 01:30N 68°09' E 015°19'5 9.7
2017-Jun-23 00:59N 68°06' E 015°08'5 9.8
2017-Jun-23 00:30N 68°04' E 014°58'510.1
2017-Jun-23 00:00N 68°00' E 014°48'510.1
2017-Jun-22 23:30N 67°57' E 014°37'510.1
2017-Jun-22 23:00N 67°54' E 014°28'510.1
2017-Jun-22 22:30N 67°50' E 014°19'510.1
2017-Jun-22 22:00N 67°46' E 014°11'5 9.9
2017-Jun-22 21:29N 67°42' E 014°03'5 9.7
2017-Jun-22 21:00N 67°38' E 013°56'510.0
2017-Jun-22 20:30N 67°34' E 013°49'510.2
2017-Jun-22 20:00N 67°29' E 013°41'510.4
2017-Jun-22 19:30N 67°25' E 013°34'510.6
2017-Jun-22 19:00N 67°21' E 013°26'510.6
2017-Jun-22 18:30N 67°17' E 013°18'510.4
2017-Jun-22 18:00N 67°12' E 013°09'510.1
2017-Jun-22 17:30N 67°08' E 013°01'510.2
2017-Jun-22 17:00N 67°04' E 012°53'510.2
2017-Jun-22 16:30N 67°01' E 012°44'5 9.9
2017-Jun-22 16:00N 66°57' E 012°36'19 9.9
2017-Jun-22 14:03N 66°42' E 012°06'5 9.8
2017-Jun-22 13:30N 66°38' E 011°57'5 9.9
2017-Jun-22 13:00N 66°34' E 011°50'5 9.9
2017-Jun-22 12:30N 66°30' E 011°43'59 9.8
2017-Jun-22 06:27N 65°34' E 010°54'4 9.9
2017-Jun-22 06:00N 65°30' E 010°51'510.0
2017-Jun-22 05:30N 65°25' E 010°48'5 9.8
2017-Jun-22 05:00N 65°20' E 010°44'5 9.9
2017-Jun-22 04:30N 65°15' E 010°40'5 9.7
2017-Jun-22 04:00N 65°11' E 010°37'5 9.7
2017-Jun-22 03:30N 65°06' E 010°33'5 9.7
2017-Jun-22 03:00N 65°02' E 010°30'5 9.7
2017-Jun-22 02:30N 64°57' E 010°26'5 9.7
2017-Jun-22 02:01N 64°52' E 010°23'710.0
2017-Jun-22 01:21N 64°46' E 010°21'3 9.9
2017-Jun-22 01:00N 64°43' E 010°25'510.1
2017-Jun-22 00:31N 64°40' E 010°34'5 9.7
2017-Jun-22 00:00N 64°38' E 010°45'5 9.7
2017-Jun-21 23:30N 64°37' E 010°56'510.6
2017-Jun-21 23:00N 64°34' E 011°06'5 9.4
2017-Jun-21 22:30N 64°30' E 011°10'0 0.0
2017-Jun-21 22:00N 64°30' E 011°10'0 0.0
2017-Jun-21 21:30N 64°30' E 011°10'0 0.0
2017-Jun-21 21:00N 64°30' E 011°10'0 0.0
2017-Jun-21 20:30N 64°30' E 011°10'0 0.0
2017-Jun-21 20:00N 64°30' E 011°10'0 0.0
2017-Jun-21 19:30N 64°30' E 011°10'0 0.0
2017-Jun-21 19:00N 64°30' E 011°10'0 0.0
2017-Jun-21 18:30N 64°30' E 011°10'0 0.0
2017-Jun-21 18:00N 64°30' E 011°10'0 0.0
2017-Jun-21 17:30N 64°30' E 011°10'0 0.0
2017-Jun-21 16:59N 64°30' E 011°10'0 0.0
2017-Jun-21 16:30N 64°30' E 011°10'0 0.0
2017-Jun-21 16:00N 64°30' E 011°10'0 0.0
2017-Jun-21 15:30N 64°30' E 011°10'0 0.0
2017-Jun-21 15:00N 64°30' E 011°10'0 0.0
2017-Jun-21 14:30N 64°30' E 011°10'0 0.0
2017-Jun-21 11:38N 64°30' E 011°10'3 4.5
2017-Jun-21 11:00N 64°32' E 011°07'610.9
2017-Jun-21 10:26N 64°37' E 010°59'512.3
2017-Jun-21 10:00N 64°43' E 010°57'611.5
2017-Jun-21 09:30N 64°47' E 011°05'611.7
2017-Jun-21 09:01N 64°52' E 011°15'611.6
2017-Jun-21 08:30N 64°56' E 011°22'612.1
2017-Jun-21 08:00N 65°02' E 011°22'611.3
2017-Jun-21 07:30N 65°07' E 011°30'611.7
2017-Jun-21 07:00N 65°11' E 011°40'611.4
2017-Jun-21 06:26N 65°14' E 011°53'11 9.9
2017-Jun-21 05:22N 65°25' E 011°57'511.1
2017-Jun-21 04:56N 65°30' E 011°58'1111.6
2017-Jun-21 03:58N 65°39' E 012°13'1012.6
2017-Jun-21 03:11N 65°48' E 012°20'212.7
2017-Jun-21 03:00N 65°51' E 012°22'612.4
2017-Jun-21 02:29N 65°57' E 012°25'612.2
2017-Jun-21 02:00N 66°02' E 012°34'611.6
2017-Jun-21 01:29N 66°07' E 012°40'611.8
2017-Jun-21 01:00N 66°13' E 012°38'611.6
2017-Jun-21 00:30N 66°15' E 012°25'510.8
2017-Jun-21 00:00N 66°20' E 012°24'612.2
2017-Jun-20 23:30N 66°26' E 012°32'612.0
2017-Jun-20 23:00N 66°30' E 012°41'611.9
2017-Jun-20 22:30N 66°36' E 012°42'611.6
2017-Jun-20 22:00N 66°42' E 012°43'612.1
2017-Jun-20 21:29N 66°48' E 012°49'611.5
2017-Jun-20 21:00N 66°52' E 012°59'911.7
2017-Jun-20 20:16N 66°57' E 013°17'3911.4
2017-Jun-20 16:48N 67°34' E 013°53'411.7
2017-Jun-20 16:27N 67°37' E 013°59'511.8
2017-Jun-20 16:00N 67°42' E 014°07'711.8
2017-Jun-20 15:24N 67°47' E 014°18'2311.8
2017-Jun-20 13:27N 68°03' E 015°03'1012.0
2017-Jun-20 12:38N 68°09' E 015°22'13810.8
2017-Jun-19 23:55N 69°51' E 019°42'30 2.7
2017-Jun-19 12:50N 70°02' E 021°03'0 0.2
2017-Jun-19 12:30N 70°02' E 021°03'0 0.0
2017-Jun-19 12:00N 70°02' E 021°03'0 0.1
2017-Jun-19 11:30N 70°02' E 021°04'0 0.2
2017-Jun-19 11:00N 70°02' E 021°04'0 0.1
2017-Jun-19 10:30N 70°02' E 021°04'0 0.2
2017-Jun-19 10:00N 70°02' E 021°03'0 0.2
2017-Jun-19 09:30N 70°02' E 021°03'0 0.2
2017-Jun-19 09:00N 70°02' E 021°03'0 0.5
2017-Jun-19 08:30N 70°02' E 021°03'0 0.3
2017-Jun-19 08:00N 70°02' E 021°03'0 0.1
2017-Jun-19 07:30N 70°02' E 021°03'0 0.1
2017-Jun-19 07:00N 70°02' E 021°03'0 0.2
2017-Jun-19 06:30N 70°02' E 021°03'1 1.1
2017-Jun-19 06:00N 70°02' E 021°01'0 0.1
2017-Jun-19 05:30N 70°02' E 021°01'0 0.1
2017-Jun-19 05:00N 70°02' E 021°01'0 0.1
2017-Jun-19 04:30N 70°02' E 021°01'0 0.1
2017-Jun-19 04:00N 70°02' E 021°01'0 0.1
2017-Jun-19 03:30N 70°02' E 021°01'0 0.2
2017-Jun-19 03:00N 70°02' E 021°01'0 0.1
2017-Jun-19 02:30N 70°02' E 021°01'0 0.3
2017-Jun-19 02:00N 70°02' E 021°01'0 0.1
2017-Jun-19 01:30N 70°02' E 021°01'1 1.8
2017-Jun-19 00:59N 70°03' E 021°02'3 6.2
2017-Jun-19 00:30N 70°03' E 020°53'4 7.4
2017-Jun-19 00:00N 70°02' E 020°43'4 7.2
2017-Jun-18 23:30N 70°01' E 020°32'4 7.4
2017-Jun-18 23:00N 69°60' E 020°22'4 7.8
2017-Jun-18 22:30N 69°58' E 020°12'510.0
2017-Jun-18 22:00N 69°55' E 020°01'510.2
2017-Jun-18 21:30N 69°52' E 019°48'510.2
2017-Jun-18 21:00N 69°50' E 019°36'510.2
2017-Jun-18 20:29N 69°48' E 019°21'510.3
2017-Jun-18 20:01N 69°47' E 019°07'4 8.5
2017-Jun-18 19:30N 69°50' E 018°58'510.1
2017-Jun-18 18:59N 69°53' E 018°47'4 7.3
2017-Jun-18 18:30N 69°52' E 018°38'4 8.2
2017-Jun-18 18:00N 69°49' E 018°30'5 9.7
2017-Jun-18 17:30N 69°47' E 018°17'4 9.0
2017-Jun-18 17:00N 69°43' E 018°11'1 2.0
2017-Jun-18 16:30N 69°42' E 018°10'0 0.0
2017-Jun-18 16:00N 69°42' E 018°10'0 0.0
2017-Jun-18 15:29N 69°42' E 018°10'0 0.1
2017-Jun-18 15:00N 69°42' E 018°10'0 0.0
2017-Jun-18 14:00N 69°42' E 018°10'1 1.9
2017-Jun-18 13:30N 69°42' E 018°08'611.3
2017-Jun-18 13:00N 69°40' E 017°52'611.5
2017-Jun-18 12:30N 69°39' E 017°36'611.4
2017-Jun-18 12:00N 69°36' E 017°22'611.4
2017-Jun-18 11:30N 69°33' E 017°08'611.3
2017-Jun-18 11:00N 69°29' E 016°57'611.4
2017-Jun-18 10:30N 69°23' E 016°52'5 9.6
2017-Jun-18 10:00N 69°20' E 017°01'2 3.7
2017-Jun-18 09:30N 69°20' E 017°06'0 0.0
2017-Jun-18 09:00N 69°20' E 017°06'0 0.0
2017-Jun-18 08:30N 69°20' E 017°06'0 0.0
2017-Jun-18 08:00N 69°20' E 017°06'0 0.0
2017-Jun-18 07:30N 69°20' E 017°06'0 0.0
2017-Jun-18 06:59N 69°20' E 017°07'0 0.8
2017-Jun-18 06:30N 69°20' E 017°06'0 0.0
2017-Jun-18 06:00N 69°20' E 017°06'2 3.3
2017-Jun-18 05:30N 69°20' E 017°01'4 8.3
2017-Jun-18 04:59N 69°22' E 016°51'4 9.0
2017-Jun-18 04:30N 69°27' E 016°54'5 9.0
2017-Jun-18 04:00N 69°31' E 017°00'4 9.1
2017-Jun-18 03:30N 69°33' E 017°12'5 9.2
2017-Jun-18 03:01N 69°35' E 017°23'4 7.6
2017-Jun-18 02:30N 69°35' E 017°34'5 9.2
2017-Jun-18 02:00N 69°31' E 017°41'0 0.2
2017-Jun-18 01:30N 69°31' E 017°42'0 0.0
2017-Jun-18 01:00N 69°31' E 017°42'0 0.0
2017-Jun-18 00:30N 69°31' E 017°42'1 1.6
2017-Jun-18 00:00N 69°32' E 017°40'4 8.5
2017-Jun-17 23:30N 69°35' E 017°34'4 8.3
2017-Jun-17 23:01N 69°35' E 017°22'510.3
2017-Jun-17 22:30N 69°32' E 017°09'510.4
2017-Jun-17 22:00N 69°29' E 016°57'510.9
2017-Jun-17 21:30N 69°24' E 016°52'5 9.3
2017-Jun-17 21:00N 69°20' E 016°60'2 4.2
2017-Jun-17 20:30N 69°20' E 017°06'0 0.0
2017-Jun-17 19:59N 69°20' E 017°06'3 7.1
2017-Jun-17 19:31N 69°21' E 016°56'4 8.3
2017-Jun-17 19:00N 69°25' E 016°53'510.1
2017-Jun-17 18:30N 69°30' E 016°58'510.1
2017-Jun-17 18:00N 69°32' E 017°10'510.4
2017-Jun-17 17:30N 69°35' E 017°22'4 8.1
2017-Jun-17 17:00N 69°35' E 017°34'5 9.5
2017-Jun-17 16:30N 69°31' E 017°42'0 0.1
2017-Jun-17 16:00N 69°31' E 017°42'0 0.0
2017-Jun-17 15:30N 69°31' E 017°42'0 0.2
2017-Jun-17 15:00N 69°31' E 017°42'8 8.3
2017-Jun-17 14:00N 69°35' E 017°21'511.0
2017-Jun-17 13:30N 69°32' E 017°07'510.7
2017-Jun-17 13:00N 69°28' E 016°56'510.8
2017-Jun-17 12:30N 69°23' E 016°51'5 9.8
2017-Jun-17 12:00N 69°20' E 017°02'1 2.3
2017-Jun-17 11:30N 69°20' E 017°06'0 0.2
2017-Jun-17 11:00N 69°20' E 017°06'5 9.5
2017-Jun-17 10:30N 69°22' E 016°53'5 9.1
2017-Jun-17 10:00N 69°26' E 016°54'5 9.8
2017-Jun-17 09:30N 69°30' E 016°60'510.1
2017-Jun-17 09:00N 69°33' E 017°12'510.1
2017-Jun-17 08:30N 69°35' E 017°25'4 8.0
2017-Jun-17 08:00N 69°34' E 017°36'4 7.3
2017-Jun-17 07:31N 69°31' E 017°42'0 0.0
2017-Jun-17 07:00N 69°31' E 017°42'0 0.0
2017-Jun-17 06:30N 69°31' E 017°42'3 5.3
2017-Jun-17 06:00N 69°33' E 017°38'3 6.6
2017-Jun-17 05:30N 69°36' E 017°44'510.5
2017-Jun-17 05:00N 69°34' E 017°58'611.7
2017-Jun-17 04:30N 69°30' E 018°12'611.3
2017-Jun-17 04:00N 69°32' E 018°28'510.7
2017-Jun-17 03:30N 69°33' E 018°42'5 9.7
2017-Jun-17 03:00N 69°36' E 018°53'4 7.5
2017-Jun-17 02:30N 69°39' E 018°58'0 0.0
2017-Jun-17 02:00N 69°39' E 018°58'0 0.0
2017-Jun-17 01:30N 69°39' E 018°58'0 0.0
2017-Jun-17 01:00N 69°39' E 018°58'1 1.8
2017-Jun-17 00:30N 69°40' E 019°00'511.2
2017-Jun-17 00:00N 69°45' E 019°07'611.5
2017-Jun-16 23:30N 69°48' E 019°22'611.7
2017-Jun-16 22:59N 69°50' E 019°38'611.2
2017-Jun-16 22:30N 69°53' E 019°52'611.1
2017-Jun-16 22:00N 69°57' E 020°04'510.9
2017-Jun-16 21:30N 69°60' E 020°18'510.9
2017-Jun-16 21:00N 70°01' E 020°33'511.2
2017-Jun-16 20:30N 70°03' E 020°48'611.0
2017-Jun-16 20:00N 70°04' E 021°04'611.0
2017-Jun-16 19:30N 70°03' E 021°20'510.8
2017-Jun-16 19:00N 69°60' E 021°32'10 5.7
2017-Jun-16 17:16N 69°52' E 021°50'411.5
2017-Jun-16 16:58N 69°54' E 021°42'510.4
2017-Jun-16 16:30N 69°58' E 021°35'611.5
2017-Jun-16 16:00N 70°02' E 021°22'611.4
2017-Jun-16 15:30N 70°02' E 021°06'2 4.3
2017-Jun-16 15:00N 70°02' E 020°59'0 0.0
2017-Jun-16 14:30N 70°02' E 020°59'0 0.3
2017-Jun-16 13:30N 70°02' E 021°00'0 0.0
2017-Jun-16 13:00N 70°02' E 021°00'2 3.8
2017-Jun-16 12:30N 70°04' E 021°00'4 7.7
2017-Jun-16 12:00N 70°03' E 020°49'3 6.8
2017-Jun-16 11:30N 70°00' E 020°42'1 1.7
2017-Jun-16 10:59N 69°60' E 020°43'0 0.0
2017-Jun-16 10:31N 69°60' E 020°43'3 5.6
2017-Jun-16 10:00N 70°02' E 020°46'510.6
2017-Jun-16 09:30N 70°03' E 021°01'1 2.5
2017-Jun-16 09:00N 70°02' E 020°59'0 0.0
2017-Jun-16 08:30N 70°02' E 020°59'2 4.4
2017-Jun-16 08:00N 70°03' E 020°54'5 9.8
2017-Jun-16 07:30N 70°01' E 020°42'1 2.8
2017-Jun-16 07:00N 69°60' E 020°43'0 0.0
2017-Jun-16 06:30N 69°60' E 020°43'0 0.0
2017-Jun-16 06:00N 69°60' E 020°43'2 4.5
2017-Jun-16 05:29N 70°02' E 020°43'510.9
2017-Jun-16 05:00N 70°04' E 020°58'2 3.5
2017-Jun-16 04:30N 70°02' E 020°59'0 0.0
2017-Jun-16 04:00N 70°02' E 020°59'1 1.3
2017-Jun-16 03:30N 70°02' E 021°01'3 6.8
2017-Jun-16 03:00N 70°03' E 020°52'510.5
2017-Jun-16 02:30N 70°01' E 020°38'5 9.8
2017-Jun-16 02:00N 69°60' E 020°24'510.3
2017-Jun-16 01:30N 69°58' E 020°10'510.2
2017-Jun-16 01:00N 69°55' E 019°59'5 9.9
2017-Jun-16 00:30N 69°52' E 019°47'510.1
2017-Jun-16 00:00N 69°50' E 019°34'510.5
2017-Jun-15 23:30N 69°48' E 019°20'510.3
2017-Jun-15 23:00N 69°45' E 019°07'5 9.9
2017-Jun-15 22:30N 69°40' E 019°01'510.4
2017-Jun-15 22:00N 69°36' E 018°53'5 9.2
2017-Jun-15 21:30N 69°33' E 018°42'510.0
2017-Jun-15 21:00N 69°32' E 018°29'5 9.7
2017-Jun-15 20:29N 69°30' E 018°16'4 9.1
2017-Jun-15 20:00N 69°26' E 018°07'510.3
2017-Jun-15 19:30N 69°21' E 018°05'510.0
2017-Jun-15 19:00N 69°17' E 017°58'510.1
2017-Jun-15 18:30N 69°12' E 018°01'5 9.7
2017-Jun-15 18:00N 69°09' E 017°50'611.6
2017-Jun-15 17:30N 69°07' E 017°35'510.5
2017-Jun-15 17:00N 69°04' E 017°22'1 2.8
2017-Jun-15 16:30N 69°03' E 017°22'0 0.0
2017-Jun-15 16:00N 69°03' E 017°22'0 0.0
2017-Jun-15 15:30N 69°03' E 017°22'0 0.0
2017-Jun-15 14:59N 69°03' E 017°22'3 2.9
2017-Jun-15 14:01N 69°01' E 017°17'611.8
2017-Jun-15 13:30N 68°59' E 017°01'  

Dump ship's entire track history